sensor_id;sensor_type;location;lat;lon;timestamp;pressure;altitude;pressure_sealevel;temperature;humidity
49122;BME280;35529;44.342;25.944;2024-01-27T00:02:25;101108.69;;;-0.21;100.00
49122;BME280;35529;44.342;25.944;2024-01-27T00:04:51;101110.00;;;-0.15;100.00
49122;BME280;35529;44.342;25.944;2024-01-27T00:07:22;101123.81;;;-0.13;100.00
49122;BME280;35529;44.342;25.944;2024-01-27T00:09:48;101130.19;;;-0.17;100.00
49122;BME280;35529;44.342;25.944;2024-01-27T00:12:17;101124.63;;;-0.12;100.00
49122;BME280;35529;44.342;25.944;2024-01-27T00:14:46;101115.91;;;-0.24;100.00
49122;BME280;35529;44.342;25.944;2024-01-27T00:17:17;101108.84;;;-0.35;100.00
49122;BME280;35529;44.342;25.944;2024-01-27T00:19:48;101097.22;;;-0.31;100.00
49122;BME280;35529;44.342;25.944;2024-01-27T00:22:14;101093.38;;;-0.25;100.00
49122;BME280;35529;44.342;25.944;2024-01-27T00:24:43;101079.97;;;-0.21;100.00
49122;BME280;35529;44.342;25.944;2024-01-27T00:27:15;101085.81;;;-0.17;100.00
49122;BME280;35529;44.342;25.944;2024-01-27T00:29:42;101088.31;;;-0.15;100.00
49122;BME280;35529;44.342;25.944;2024-01-27T00:32:10;101079.53;;;-0.14;100.00
49122;BME280;35529;44.342;25.944;2024-01-27T00:34:39;101080.38;;;-0.14;100.00
49122;BME280;35529;44.342;25.944;2024-01-27T00:37:07;101072.91;;;-0.07;100.00
49122;BME280;35529;44.342;25.944;2024-01-27T00:39:33;101072.41;;;-0.12;100.00
49122;BME280;35529;44.342;25.944;2024-01-27T00:41:59;101062.81;;;-0.12;100.00
49122;BME280;35529;44.342;25.944;2024-01-27T00:44:28;101068.31;;;-0.04;100.00
49122;BME280;35529;44.342;25.944;2024-01-27T00:46:56;101066.41;;;-0.02;100.00
49122;BME280;35529;44.342;25.944;2024-01-27T00:49:23;101070.69;;;-0.01;100.00
49122;BME280;35529;44.342;25.944;2024-01-27T00:51:52;101057.19;;;0.06;100.00
49122;BME280;35529;44.342;25.944;2024-01-27T00:54:18;101060.63;;;0.06;100.00
49122;BME280;35529;44.342;25.944;2024-01-27T00:56:46;101053.41;;;0.10;100.00
49122;BME280;35529;44.342;25.944;2024-01-27T00:59:16;101056.50;;;0.15;100.00
49122;BME280;35529;44.342;25.944;2024-01-27T01:01:46;101058.66;;;0.21;100.00
49122;BME280;35529;44.342;25.944;2024-01-27T01:04:15;101055.59;;;0.27;100.00
49122;BME280;35529;44.342;25.944;2024-01-27T01:06:43;101061.75;;;0.26;100.00
49122;BME280;35529;44.342;25.944;2024-01-27T01:09:12;101056.78;;;0.23;100.00
49122;BME280;35529;44.342;25.944;2024-01-27T01:11:38;101050.50;;;0.26;100.00
49122;BME280;35529;44.342;25.944;2024-01-27T01:14:04;101055.34;;;0.30;100.00
49122;BME280;35529;44.342;25.944;2024-01-27T01:16:30;101045.28;;;0.37;100.00
49122;BME280;35529;44.342;25.944;2024-01-27T01:18:59;101042.22;;;0.43;100.00
49122;BME280;35529;44.342;25.944;2024-01-27T01:21:25;101034.63;;;0.40;100.00
49122;BME280;35529;44.342;25.944;2024-01-27T01:23:53;101044.81;;;0.43;100.00
49122;BME280;35529;44.342;25.944;2024-01-27T01:26:20;101033.44;;;0.44;100.00
49122;BME280;35529;44.342;25.944;2024-01-27T01:28:48;101034.13;;;0.46;100.00
49122;BME280;35529;44.342;25.944;2024-01-27T01:31:17;101035.91;;;0.46;100.00
49122;BME280;35529;44.342;25.944;2024-01-27T01:33:46;101025.84;;;0.53;100.00
49122;BME280;35529;44.342;25.944;2024-01-27T01:36:14;101023.91;;;0.55;100.00
49122;BME280;35529;44.342;25.944;2024-01-27T01:38:41;101025.72;;;0.54;100.00
49122;BME280;35529;44.342;25.944;2024-01-27T01:41:09;101011.72;;;0.55;100.00
49122;BME280;35529;44.342;25.944;2024-01-27T01:43:37;101014.19;;;0.57;100.00
49122;BME280;35529;44.342;25.944;2024-01-27T01:46:04;101011.00;;;0.64;100.00
49122;BME280;35529;44.342;25.944;2024-01-27T01:48:34;101031.78;;;0.66;100.00
49122;BME280;35529;44.342;25.944;2024-01-27T01:51:05;101029.53;;;0.73;100.00
49122;BME280;35529;44.342;25.944;2024-01-27T01:53:31;101023.34;;;0.74;100.00
49122;BME280;35529;44.342;25.944;2024-01-27T01:56:00;101020.50;;;0.77;100.00
49122;BME280;35529;44.342;25.944;2024-01-27T01:58:26;101024.28;;;0.84;100.00
49122;BME280;35529;44.342;25.944;2024-01-27T02:01:02;101008.25;;;0.89;100.00
49122;BME280;35529;44.342;25.944;2024-01-27T02:03:34;101005.88;;;0.97;100.00
49122;BME280;35529;44.342;25.944;2024-01-27T02:06:00;101012.75;;;0.87;100.00
49122;BME280;35529;44.342;25.944;2024-01-27T02:08:27;101011.22;;;0.84;100.00
49122;BME280;35529;44.342;25.944;2024-01-27T02:10:55;101019.78;;;0.86;100.00
49122;BME280;35529;44.342;25.944;2024-01-27T02:13:24;101011.22;;;0.84;100.00
49122;BME280;35529;44.342;25.944;2024-01-27T02:15:53;101018.59;;;0.79;100.00
49122;BME280;35529;44.342;25.944;2024-01-27T02:18:22;101017.38;;;0.83;100.00
49122;BME280;35529;44.342;25.944;2024-01-27T02:20:51;101005.78;;;0.87;100.00
49122;BME280;35529;44.342;25.944;2024-01-27T02:23:20;101004.66;;;0.90;100.00
49122;BME280;35529;44.342;25.944;2024-01-27T02:25:48;101010.63;;;0.92;100.00
49122;BME280;35529;44.342;25.944;2024-01-27T02:28:17;101005.53;;;0.90;100.00
49122;BME280;35529;44.342;25.944;2024-01-27T02:30:46;101011.34;;;0.94;100.00
49122;BME280;35529;44.342;25.944;2024-01-27T02:33:14;101008.59;;;0.95;100.00
49122;BME280;35529;44.342;25.944;2024-01-27T02:35:41;101000.63;;;0.86;100.00
49122;BME280;35529;44.342;25.944;2024-01-27T02:38:09;100987.47;;;0.76;100.00
49122;BME280;35529;44.342;25.944;2024-01-27T02:40:38;100990.44;;;0.71;100.00
49122;BME280;35529;44.342;25.944;2024-01-27T02:43:07;100983.56;;;0.70;100.00
49122;BME280;35529;44.342;25.944;2024-01-27T02:45:38;100994.84;;;0.59;100.00
49122;BME280;35529;44.342;25.944;2024-01-27T02:48:07;100981.19;;;0.44;100.00
49122;BME280;35529;44.342;25.944;2024-01-27T02:50:36;100972.03;;;0.50;100.00
49122;BME280;35529;44.342;25.944;2024-01-27T02:53:02;100999.00;;;0.62;100.00
49122;BME280;35529;44.342;25.944;2024-01-27T02:55:30;100989.81;;;0.79;100.00
49122;BME280;35529;44.342;25.944;2024-01-27T02:57:59;100984.13;;;0.85;100.00
49122;BME280;35529;44.342;25.944;2024-01-27T03:00:27;100986.97;;;0.93;100.00
49122;BME280;35529;44.342;25.944;2024-01-27T03:02:56;100973.78;;;0.95;100.00
49122;BME280;35529;44.342;25.944;2024-01-27T03:05:25;100962.50;;;0.94;100.00
49122;BME280;35529;44.342;25.944;2024-01-27T03:07:53;100949.88;;;0.99;100.00
49122;BME280;35529;44.342;25.944;2024-01-27T03:10:19;100936.91;;;1.09;100.00
49122;BME280;35529;44.342;25.944;2024-01-27T03:12:45;100941.88;;;1.12;100.00
49122;BME280;35529;44.342;25.944;2024-01-27T03:15:14;100941.78;;;1.14;100.00
49122;BME280;35529;44.342;25.944;2024-01-27T03:17:43;100940.09;;;1.13;100.00
49122;BME280;35529;44.342;25.944;2024-01-27T03:20:11;100956.50;;;1.15;100.00
49122;BME280;35529;44.342;25.944;2024-01-27T03:22:37;100950.72;;;1.00;100.00
49122;BME280;35529;44.342;25.944;2024-01-27T03:25:06;100942.03;;;0.99;100.00
49122;BME280;35529;44.342;25.944;2024-01-27T03:27:34;100954.25;;;1.10;100.00
49122;BME280;35529;44.342;25.944;2024-01-27T03:30:04;100945.28;;;1.24;100.00
49122;BME280;35529;44.342;25.944;2024-01-27T03:32:32;100938.28;;;1.25;100.00
49122;BME280;35529;44.342;25.944;2024-01-27T03:35:01;100937.69;;;1.21;100.00
49122;BME280;35529;44.342;25.944;2024-01-27T03:37:27;100915.56;;;1.25;100.00
49122;BME280;35529;44.342;25.944;2024-01-27T03:39:57;100923.25;;;1.38;100.00
49122;BME280;35529;44.342;25.944;2024-01-27T03:42:25;100912.59;;;1.51;100.00
49122;BME280;35529;44.342;25.944;2024-01-27T03:44:54;100918.16;;;1.58;100.00
49122;BME280;35529;44.342;25.944;2024-01-27T03:47:23;100906.75;;;1.59;100.00
49122;BME280;35529;44.342;25.944;2024-01-27T03:49:54;100898.88;;;1.59;100.00
49122;BME280;35529;44.342;25.944;2024-01-27T03:52:20;100907.38;;;1.72;100.00
49122;BME280;35529;44.342;25.944;2024-01-27T03:54:49;100902.97;;;1.73;100.00
49122;BME280;35529;44.342;25.944;2024-01-27T03:57:17;100892.63;;;1.71;100.00
49122;BME280;35529;44.342;25.944;2024-01-27T03:59:43;100888.22;;;1.72;100.00
49122;BME280;35529;44.342;25.944;2024-01-27T04:02:12;100884.31;;;1.66;100.00
49122;BME280;35529;44.342;25.944;2024-01-27T04:04:40;100886.31;;;1.74;100.00
49122;BME280;35529;44.342;25.944;2024-01-27T04:07:09;100878.84;;;1.69;100.00
49122;BME280;35529;44.342;25.944;2024-01-27T04:09:37;100879.16;;;1.76;100.00
49122;BME280;35529;44.342;25.944;2024-01-27T04:12:04;100874.09;;;1.84;100.00
49122;BME280;35529;44.342;25.944;2024-01-27T04:14:32;100869.31;;;1.89;100.00
49122;BME280;35529;44.342;25.944;2024-01-27T04:17:01;100884.50;;;1.95;100.00
49122;BME280;35529;44.342;25.944;2024-01-27T04:19:33;100870.94;;;1.90;100.00
49122;BME280;35529;44.342;25.944;2024-01-27T04:22:01;100867.06;;;1.84;100.00
49122;BME280;35529;44.342;25.944;2024-01-27T04:24:32;100874.09;;;1.84;100.00
49122;BME280;35529;44.342;25.944;2024-01-27T04:26:59;100873.16;;;1.85;100.00
49122;BME280;35529;44.342;25.944;2024-01-27T04:29:28;100863.81;;;1.92;100.00
49122;BME280;35529;44.342;25.944;2024-01-27T04:31:56;100861.09;;;2.04;100.00
49122;BME280;35529;44.342;25.944;2024-01-27T04:34:22;100859.19;;;2.06;100.00
49122;BME280;35529;44.342;25.944;2024-01-27T04:36:53;100865.38;;;2.05;100.00
49122;BME280;35529;44.342;25.944;2024-01-27T04:39:21;100871.38;;;1.95;100.00
49122;BME280;35529;44.342;25.944;2024-01-27T04:41:50;100872.88;;;1.88;100.00
49122;BME280;35529;44.342;25.944;2024-01-27T04:44:16;100875.78;;;1.85;100.00
49122;BME280;35529;44.342;25.944;2024-01-27T04:46:46;100886.94;;;1.87;100.00
49122;BME280;35529;44.342;25.944;2024-01-27T04:49:14;100888.88;;;1.85;100.00
49122;BME280;35529;44.342;25.944;2024-01-27T04:51:44;100886.63;;;1.80;100.00
49122;BME280;35529;44.342;25.944;2024-01-27T04:54:13;100895.41;;;1.79;100.00
49122;BME280;35529;44.342;25.944;2024-01-27T04:56:39;100891.72;;;1.82;100.00
49122;BME280;35529;44.342;25.944;2024-01-27T04:59:07;100903.59;;;1.86;100.00
49122;BME280;35529;44.342;25.944;2024-01-27T05:01:36;100904.31;;;1.88;100.00
49122;BME280;35529;44.342;25.944;2024-01-27T05:04:05;100897.03;;;1.92;100.00
49122;BME280;35529;44.342;25.944;2024-01-27T05:06:36;100895.22;;;1.92;100.00
49122;BME280;35529;44.342;25.944;2024-01-27T05:09:04;100904.63;;;1.95;100.00
49122;BME280;35529;44.342;25.944;2024-01-27T05:11:34;100895.84;;;2.06;100.00
49122;BME280;35529;44.342;25.944;2024-01-27T05:14:02;100887.88;;;2.17;100.00
49122;BME280;35529;44.342;25.944;2024-01-27T05:16:28;100882.13;;;2.23;100.00
49122;BME280;35529;44.342;25.944;2024-01-27T05:18:57;100880.53;;;2.32;100.00
49122;BME280;35529;44.342;25.944;2024-01-27T05:21:24;100880.81;;;2.39;100.00
49122;BME280;35529;44.342;25.944;2024-01-27T05:23:53;100878.75;;;2.42;100.00
49122;BME280;35529;44.342;25.944;2024-01-27T05:26:24;100874.59;;;2.40;100.00
49122;BME280;35529;44.342;25.944;2024-01-27T05:28:50;100875.31;;;2.42;100.00
49122;BME280;35529;44.342;25.944;2024-01-27T05:31:18;100882.75;;;2.37;100.00
49122;BME280;35529;44.342;25.944;2024-01-27T05:33:47;100894.59;;;2.31;100.00
49122;BME280;35529;44.342;25.944;2024-01-27T05:36:14;100905.19;;;2.29;100.00
49122;BME280;35529;44.342;25.944;2024-01-27T05:38:43;100918.59;;;2.36;100.00
49122;BME280;35529;44.342;25.944;2024-01-27T05:41:09;100937.94;;;2.45;100.00
49122;BME280;35529;44.342;25.944;2024-01-27T05:43:35;100929.56;;;2.51;100.00
49122;BME280;35529;44.342;25.944;2024-01-27T05:46:04;100934.09;;;2.49;100.00
49122;BME280;35529;44.342;25.944;2024-01-27T05:48:30;100934.34;;;2.46;100.00
49122;BME280;35529;44.342;25.944;2024-01-27T05:51:00;100932.56;;;2.46;100.00
49122;BME280;35529;44.342;25.944;2024-01-27T05:53:26;100932.19;;;2.51;100.00
49122;BME280;35529;44.342;25.944;2024-01-27T05:55:58;100937.84;;;2.56;100.00
49122;BME280;35529;44.342;25.944;2024-01-27T05:58:29;100927.22;;;2.58;100.00
49122;BME280;35529;44.342;25.944;2024-01-27T06:00:58;100925.44;;;2.58;100.00
49122;BME280;35529;44.342;25.944;2024-01-27T06:03:28;100917.44;;;2.60;100.00
49122;BME280;35529;44.342;25.944;2024-01-27T06:05:57;100907.66;;;2.72;100.00
49122;BME280;35529;44.342;25.944;2024-01-27T06:08:26;100907.72;;;2.81;100.00
49122;BME280;35529;44.342;25.944;2024-01-27T06:10:54;100893.91;;;2.89;100.00
49122;BME280;35529;44.342;25.944;2024-01-27T06:13:20;100887.31;;;2.95;100.00
49122;BME280;35529;44.342;25.944;2024-01-27T06:15:49;100900.00;;;2.99;100.00
49122;BME280;35529;44.342;25.944;2024-01-27T06:18:20;100908.00;;;3.08;100.00
49122;BME280;35529;44.342;25.944;2024-01-27T06:20:49;100911.34;;;3.10;100.00
49122;BME280;35529;44.342;25.944;2024-01-27T06:23:15;100909.13;;;3.15;100.00
49122;BME280;35529;44.342;25.944;2024-01-27T06:25:41;100910.22;;;3.22;100.00
49122;BME280;35529;44.342;25.944;2024-01-27T06:28:09;100916.84;;;3.36;100.00
49122;BME280;35529;44.342;25.944;2024-01-27T06:30:35;100893.78;;;3.40;100.00
49122;BME280;35529;44.342;25.944;2024-01-27T06:33:02;100887.88;;;3.38;100.00
49122;BME280;35529;44.342;25.944;2024-01-27T06:35:30;100890.22;;;3.31;100.00
49122;BME280;35529;44.342;25.944;2024-01-27T06:37:56;100891.97;;;3.40;100.00
49122;BME280;35529;44.342;25.944;2024-01-27T06:40:27;100888.66;;;3.48;100.00
49122;BME280;35529;44.342;25.944;2024-01-27T06:42:53;100897.78;;;3.44;100.00
49122;BME280;35529;44.342;25.944;2024-01-27T06:45:20;100898.22;;;3.49;100.00
49122;BME280;35529;44.342;25.944;2024-01-27T06:47:46;100892.25;;;3.57;100.00
49122;BME280;35529;44.342;25.944;2024-01-27T06:50:12;100882.28;;;3.60;100.00
49122;BME280;35529;44.342;25.944;2024-01-27T06:52:39;100880.25;;;3.54;100.00
49122;BME280;35529;44.342;25.944;2024-01-27T06:55:10;100881.34;;;3.51;100.00
49122;BME280;35529;44.342;25.944;2024-01-27T06:57:37;100887.16;;;3.55;100.00
49122;BME280;35529;44.342;25.944;2024-01-27T07:00:03;100884.47;;;3.75;100.00
49122;BME280;35529;44.342;25.944;2024-01-27T07:02:32;100889.84;;;3.83;100.00
49122;BME280;35529;44.342;25.944;2024-01-27T07:04:58;100889.19;;;3.81;100.00
49122;BME280;35529;44.342;25.944;2024-01-27T07:07:25;100896.34;;;3.79;100.00
49122;BME280;35529;44.342;25.944;2024-01-27T07:09:57;100898.03;;;3.80;100.00
49122;BME280;35529;44.342;25.944;2024-01-27T07:12:26;100901.97;;;3.94;100.00
49122;BME280;35529;44.342;25.944;2024-01-27T07:14:52;100900.16;;;4.04;100.00
49122;BME280;35529;44.342;25.944;2024-01-27T07:17:20;100898.19;;;4.16;100.00
49122;BME280;35529;44.342;25.944;2024-01-27T07:19:49;100905.13;;;4.17;100.00
49122;BME280;35529;44.342;25.944;2024-01-27T07:22:17;100907.75;;;4.07;100.00
49122;BME280;35529;44.342;25.944;2024-01-27T07:24:44;100921.16;;;4.14;100.00
49122;BME280;35529;44.342;25.944;2024-01-27T07:27:14;100930.53;;;4.26;100.00
49122;BME280;35529;44.342;25.944;2024-01-27T07:29:41;100933.81;;;4.38;100.00
49122;BME280;35529;44.342;25.944;2024-01-27T07:32:09;100926.84;;;4.47;100.00
49122;BME280;35529;44.342;25.944;2024-01-27T07:34:42;100937.47;;;4.55;100.00
49122;BME280;35529;44.342;25.944;2024-01-27T07:37:11;100932.03;;;4.66;100.00
49122;BME280;35529;44.342;25.944;2024-01-27T07:39:37;100929.97;;;4.60;100.00
49122;BME280;35529;44.342;25.944;2024-01-27T07:42:03;100915.56;;;4.64;100.00
49122;BME280;35529;44.342;25.944;2024-01-27T07:44:32;100918.66;;;4.78;100.00
49122;BME280;35529;44.342;25.944;2024-01-27T07:47:00;100923.78;;;4.79;100.00
49122;BME280;35529;44.342;25.944;2024-01-27T07:49:29;100915.16;;;4.87;100.00
49122;BME280;35529;44.342;25.944;2024-01-27T07:51:55;100927.91;;;4.82;100.00
49122;BME280;35529;44.342;25.944;2024-01-27T07:54:21;100947.28;;;4.81;100.00
49122;BME280;35529;44.342;25.944;2024-01-27T07:56:49;100950.22;;;4.78;100.00
49122;BME280;35529;44.342;25.944;2024-01-27T07:59:18;100945.34;;;4.83;100.00
49122;BME280;35529;44.342;25.944;2024-01-27T08:01:44;100942.16;;;4.89;100.00
49122;BME280;35529;44.342;25.944;2024-01-27T08:04:13;100939.75;;;4.96;100.00
49122;BME280;35529;44.342;25.944;2024-01-27T08:06:48;100946.53;;;4.98;100.00
49122;BME280;35529;44.342;25.944;2024-01-27T08:09:17;100941.94;;;5.00;100.00
49122;BME280;35529;44.342;25.944;2024-01-27T08:11:48;100949.25;;;5.07;100.00
49122;BME280;35529;44.342;25.944;2024-01-27T08:14:18;100943.75;;;5.18;100.00
49122;BME280;35529;44.342;25.944;2024-01-27T08:16:45;100933.59;;;5.23;100.00
49122;BME280;35529;44.342;25.944;2024-01-27T08:19:11;100937.38;;;5.39;100.00
49122;BME280;35529;44.342;25.944;2024-01-27T08:21:40;100942.03;;;5.45;100.00
49122;BME280;35529;44.342;25.944;2024-01-27T08:24:08;100948.19;;;5.53;100.00
49122;BME280;35529;44.342;25.944;2024-01-27T08:26:34;100946.75;;;5.59;100.00
49122;BME280;35529;44.342;25.944;2024-01-27T08:29:03;100953.75;;;5.68;100.00
49122;BME280;35529;44.342;25.944;2024-01-27T08:31:29;100969.78;;;5.75;100.00
49122;BME280;35529;44.342;25.944;2024-01-27T08:33:57;100972.78;;;5.62;100.00
49122;BME280;35529;44.342;25.944;2024-01-27T08:36:23;100968.59;;;5.51;100.00
49122;BME280;35529;44.342;25.944;2024-01-27T08:38:50;100977.34;;;5.52;100.00
49122;BME280;35529;44.342;25.944;2024-01-27T08:41:18;100974.53;;;5.53;100.00
49122;BME280;35529;44.342;25.944;2024-01-27T08:43:46;100978.31;;;5.51;100.00
49122;BME280;35529;44.342;25.944;2024-01-27T08:46:13;100977.84;;;5.56;100.00
49122;BME280;35529;44.342;25.944;2024-01-27T08:48:41;100980.63;;;5.54;100.00
49122;BME280;35529;44.342;25.944;2024-01-27T08:51:10;100985.34;;;5.50;100.00
49122;BME280;35529;44.342;25.944;2024-01-27T08:53:38;100980.31;;;5.39;100.00
49122;BME280;35529;44.342;25.944;2024-01-27T08:56:10;100973.72;;;5.35;100.00
49122;BME280;35529;44.342;25.944;2024-01-27T08:58:42;100973.41;;;5.38;100.00
49122;BME280;35529;44.342;25.944;2024-01-27T09:01:09;100977.00;;;5.37;100.00
49122;BME280;35529;44.342;25.944;2024-01-27T09:03:41;100979.41;;;5.12;100.00
49122;BME280;35529;44.342;25.944;2024-01-27T09:06:09;100969.38;;;4.70;100.00
49122;BME280;35529;44.342;25.944;2024-01-27T09:08:39;100968.09;;;4.74;100.00
49122;BME280;35529;44.342;25.944;2024-01-27T09:11:09;100961.06;;;4.75;100.00
49122;BME280;35529;44.342;25.944;2024-01-27T09:13:35;100960.41;;;4.91;100.00
49122;BME280;35529;44.342;25.944;2024-01-27T09:16:03;100958.38;;;4.84;100.00
49122;BME280;35529;44.342;25.944;2024-01-27T09:18:29;100964.50;;;5.21;100.00
49122;BME280;35529;44.342;25.944;2024-01-27T09:20:59;100975.66;;;5.51;100.00
49122;BME280;35529;44.342;25.944;2024-01-27T09:23:25;100981.75;;;5.69;100.00
49122;BME280;35529;44.342;25.944;2024-01-27T09:25:53;100976.00;;;5.92;100.00
49122;BME280;35529;44.342;25.944;2024-01-27T09:28:22;100974.13;;;6.02;100.00
49122;BME280;35529;44.342;25.944;2024-01-27T09:30:50;100963.78;;;6.09;100.00
49122;BME280;35529;44.342;25.944;2024-01-27T09:33:17;100959.34;;;6.10;100.00
49122;BME280;35529;44.342;25.944;2024-01-27T09:35:49;100973.50;;;6.09;100.00
49122;BME280;35529;44.342;25.944;2024-01-27T09:38:17;100968.09;;;5.92;100.00
49122;BME280;35529;44.342;25.944;2024-01-27T09:40:43;100966.16;;;5.58;100.00
49122;BME280;35529;44.342;25.944;2024-01-27T09:43:12;100963.78;;;5.47;100.00
49122;BME280;35529;44.342;25.944;2024-01-27T09:45:41;100972.06;;;5.52;100.00
49122;BME280;35529;44.342;25.944;2024-01-27T09:48:07;100968.81;;;5.58;100.00
49122;BME280;35529;44.342;25.944;2024-01-27T09:50:39;100978.00;;;5.54;100.00
49122;BME280;35529;44.342;25.944;2024-01-27T09:53:09;100979.41;;;5.30;100.00
49122;BME280;35529;44.342;25.944;2024-01-27T09:55:35;100976.44;;;4.97;100.00
49122;BME280;35529;44.342;25.944;2024-01-27T09:58:02;100964.94;;;4.70;100.00
49122;BME280;35529;44.342;25.944;2024-01-27T10:00:32;100963.44;;;4.96;100.00
49122;BME280;35529;44.342;25.944;2024-01-27T10:03:02;100963.19;;;5.35;100.00
49122;BME280;35529;44.342;25.944;2024-01-27T10:05:32;100957.34;;;5.67;100.00
49122;BME280;35529;44.342;25.944;2024-01-27T10:07:58;100955.44;;;5.96;100.00
49122;BME280;35529;44.342;25.944;2024-01-27T10:10:29;100956.94;;;6.16;100.00
49122;BME280;35529;44.342;25.944;2024-01-27T10:12:55;100949.59;;;6.28;100.00
49122;BME280;35529;44.342;25.944;2024-01-27T10:15:25;100951.13;;;6.13;100.00
49122;BME280;35529;44.342;25.944;2024-01-27T10:18:03;100946.78;;;6.03;100.00
49122;BME280;35529;44.342;25.944;2024-01-27T10:20:29;100946.19;;;6.10;100.00
49122;BME280;35529;44.342;25.944;2024-01-27T10:22:58;100948.75;;;6.28;100.00
49122;BME280;35529;44.342;25.944;2024-01-27T10:25:26;100967.03;;;6.56;100.00
49122;BME280;35529;44.342;25.944;2024-01-27T10:27:55;100977.16;;;6.68;100.00
49122;BME280;35529;44.342;25.944;2024-01-27T10:30:23;100963.28;;;6.66;100.00
49122;BME280;35529;44.342;25.944;2024-01-27T10:32:55;100983.22;;;6.34;100.00
49122;BME280;35529;44.342;25.944;2024-01-27T10:35:25;100977.28;;;6.06;100.00
49122;BME280;35529;44.342;25.944;2024-01-27T10:37:52;100985.66;;;6.01;100.00
49122;BME280;35529;44.342;25.944;2024-01-27T10:40:21;100986.81;;;5.99;100.00
49122;BME280;35529;44.342;25.944;2024-01-27T10:45:34;100969.19;;;5.81;100.00
49122;BME280;35529;44.342;25.944;2024-01-27T10:48:07;100979.72;;;5.81;100.00
49122;BME280;35529;44.342;25.944;2024-01-27T10:50:36;100973.19;;;5.49;100.00
49122;BME280;35529;44.342;25.944;2024-01-27T10:53:09;100971.06;;;5.35;100.00
49122;BME280;35529;44.342;25.944;2024-01-27T10:55:44;100969.53;;;5.14;100.00
49122;BME280;35529;44.342;25.944;2024-01-27T10:58:11;100972.97;;;5.43;100.00
49122;BME280;35529;44.342;25.944;2024-01-27T11:00:40;100969.50;;;5.24;100.00
49122;BME280;35529;44.342;25.944;2024-01-27T11:03:07;100984.34;;;5.15;100.00
49122;BME280;35529;44.342;25.944;2024-01-27T11:05:34;100977.53;;;5.23;100.00
49122;BME280;35529;44.342;25.944;2024-01-27T11:08:07;100980.03;;;5.24;100.00
49122;BME280;35529;44.342;25.944;2024-01-27T11:10:37;100993.25;;;5.32;100.00
49122;BME280;35529;44.342;25.944;2024-01-27T11:13:06;101021.59;;;5.20;100.00
49122;BME280;35529;44.342;25.944;2024-01-27T11:15:36;101032.91;;;5.31;100.00
49122;BME280;35529;44.342;25.944;2024-01-27T11:18:02;101027.50;;;5.04;100.00
49122;BME280;35529;44.342;25.944;2024-01-27T11:20:34;101039.72;;;5.24;100.00
49122;BME280;35529;44.342;25.944;2024-01-27T11:23:10;101041.88;;;5.38;100.00
49122;BME280;35529;44.342;25.944;2024-01-27T11:25:36;101038.13;;;5.13;100.00
49122;BME280;35529;44.342;25.944;2024-01-27T11:28:10;101033.63;;;5.05;100.00
49122;BME280;35529;44.342;25.944;2024-01-27T11:30:39;101041.38;;;5.25;100.00
49122;BME280;35529;44.342;25.944;2024-01-27T11:33:06;101031.88;;;5.42;100.00
49122;BME280;35529;44.342;25.944;2024-01-27T11:35:34;101024.09;;;5.22;100.00
49122;BME280;35529;44.342;25.944;2024-01-27T11:38:08;101024.03;;;5.32;100.00
49122;BME280;35529;44.342;25.944;2024-01-27T11:40:43;101024.38;;;5.83;100.00
49122;BME280;35529;44.342;25.944;2024-01-27T11:43:11;101034.00;;;5.92;100.00
49122;BME280;35529;44.342;25.944;2024-01-27T11:45:39;101035.84;;;5.64;100.00
49122;BME280;35529;44.342;25.944;2024-01-27T11:48:09;101033.47;;;5.34;100.00
49122;BME280;35529;44.342;25.944;2024-01-27T11:50:35;101043.75;;;5.00;100.00
49122;BME280;35529;44.342;25.944;2024-01-27T11:53:01;101037.63;;;4.99;100.00
49122;BME280;35529;44.342;25.944;2024-01-27T11:55:27;101050.25;;;5.24;100.00
49122;BME280;35529;44.342;25.944;2024-01-27T11:57:56;101055.28;;;5.45;100.00
49122;BME280;35529;44.342;25.944;2024-01-27T12:00:25;101051.91;;;5.52;100.00
49122;BME280;35529;44.342;25.944;2024-01-27T12:02:53;101040.47;;;5.62;100.00
49122;BME280;35529;44.342;25.944;2024-01-27T12:05:20;101049.88;;;5.64;100.00
49122;BME280;35529;44.342;25.944;2024-01-27T12:07:51;101045.16;;;5.68;100.00
49122;BME280;35529;44.342;25.944;2024-01-27T12:10:17;101048.50;;;5.42;100.00
49122;BME280;35529;44.342;25.944;2024-01-27T12:12:46;101046.78;;;5.51;100.00
49122;BME280;35529;44.342;25.944;2024-01-27T12:15:17;101055.31;;;5.63;100.00
49122;BME280;35529;44.342;25.944;2024-01-27T12:17:54;101041.34;;;5.70;100.00
49122;BME280;35529;44.342;25.944;2024-01-27T12:20:24;101058.78;;;5.99;100.00
49122;BME280;35529;44.342;25.944;2024-01-27T12:23:07;101056.44;;;6.14;100.00
49122;BME280;35529;44.342;25.944;2024-01-27T12:25:38;101063.78;;;6.29;100.00
49122;BME280;35529;44.342;25.944;2024-01-27T12:28:06;101067.38;;;6.46;100.00
49122;BME280;35529;44.342;25.944;2024-01-27T12:30:37;101065.78;;;6.53;100.00
49122;BME280;35529;44.342;25.944;2024-01-27T12:33:09;101067.88;;;6.49;100.00
49122;BME280;35529;44.342;25.944;2024-01-27T12:35:35;101076.38;;;6.61;100.00
49122;BME280;35529;44.342;25.944;2024-01-27T12:38:09;101075.50;;;6.52;100.00
49122;BME280;35529;44.342;25.944;2024-01-27T12:40:37;101069.44;;;6.60;100.00
49122;BME280;35529;44.342;25.944;2024-01-27T12:43:04;101081.03;;;6.67;100.00
49122;BME280;35529;44.342;25.944;2024-01-27T12:45:31;101090.25;;;6.63;100.00
49122;BME280;35529;44.342;25.944;2024-01-27T12:47:59;101089.88;;;6.58;100.00
49122;BME280;35529;44.342;25.944;2024-01-27T12:50:28;101082.41;;;6.27;100.00